createdAt,value
2024-03-03T00:00:48.817Z,14.04
2024-03-03T00:03:16.713Z,13.75
2024-03-03T00:05:44.449Z,13.44
2024-03-03T00:08:11.375Z,13.59
2024-03-03T00:10:38.238Z,13.37
2024-03-03T00:13:05.405Z,14.05
2024-03-03T00:15:32.380Z,13.08
2024-03-03T00:17:59.488Z,13.75
2024-03-03T00:20:26.388Z,14.27
2024-03-03T00:22:53.610Z,14.34
2024-03-03T00:25:20.550Z,14.73
2024-03-03T00:27:47.636Z,14.40
2024-03-03T00:30:14.695Z,13.89
2024-03-03T00:32:45.277Z,13.58
2024-03-03T00:35:13.145Z,14.01
2024-03-03T00:37:39.998Z,13.66
2024-03-03T00:40:07.636Z,14.41
2024-03-03T00:42:34.608Z,14.19
2024-03-03T00:45:02.120Z,14.07
2024-03-03T00:47:29.314Z,13.82
2024-03-03T00:49:56.474Z,13.84
2024-03-03T00:52:23.472Z,13.16
2024-03-03T00:54:50.410Z,12.99
2024-03-03T00:57:17.378Z,13.51
2024-03-03T00:59:44.270Z,13.22
2024-03-03T01:02:11.370Z,13.48
2024-03-03T01:04:38.307Z,12.97
2024-03-03T01:07:05.261Z,13.24
2024-03-03T01:09:33.051Z,13.23
2024-03-03T01:12:00.045Z,12.68
2024-03-03T01:14:27.077Z,13.26
2024-03-03T01:16:54.121Z,12.98
2024-03-03T01:19:21.472Z,13.07
2024-03-03T01:21:48.558Z,12.97
2024-03-03T01:24:15.545Z,13.04
2024-03-03T01:26:42.816Z,12.86
2024-03-03T01:29:09.679Z,12.44
2024-03-03T01:31:36.935Z,12.86
2024-03-03T01:34:03.964Z,12.92
2024-03-03T01:36:31.068Z,12.88
2024-03-03T01:38:57.978Z,13.33
2024-03-03T01:41:24.927Z,12.56
2024-03-03T01:43:52.431Z,12.64
2024-03-03T01:46:19.814Z,13.25
2024-03-03T01:48:47.821Z,13.69
2024-03-03T01:51:15.483Z,13.44
2024-03-03T01:53:46.357Z,13.28
2024-03-03T01:56:13.642Z,13.59
2024-03-03T01:58:41.085Z,13.56
2024-03-03T02:01:08.870Z,13.27
2024-03-03T02:03:35.955Z,13.25
2024-03-03T02:06:03.686Z,13.07
2024-03-03T02:08:31.644Z,12.91
2024-03-03T02:10:59.628Z,13.05
2024-03-03T02:13:26.950Z,12.76
2024-03-03T02:15:54.155Z,13.11
2024-03-03T02:18:21.159Z,13.00
2024-03-03T02:20:48.091Z,12.86
2024-03-03T02:23:15.425Z,13.46
2024-03-03T02:25:42.454Z,12.82
2024-03-03T02:28:10.882Z,13.25
2024-03-03T02:30:38.005Z,13.52
2024-03-03T02:33:05.144Z,13.44
2024-03-03T02:35:32.223Z,13.10
2024-03-03T02:37:59.203Z,13.26
2024-03-03T02:40:26.229Z,13.11
2024-03-03T02:42:53.158Z,13.20
2024-03-03T02:45:20.135Z,13.68
2024-03-03T02:47:49.391Z,13.61
2024-03-03T02:50:16.595Z,13.22
2024-03-03T02:52:43.482Z,13.39
2024-03-03T02:55:10.404Z,13.29
2024-03-03T02:57:38.754Z,13.24
2024-03-03T03:00:08.907Z,13.06
2024-03-03T03:02:35.815Z,13.06
2024-03-03T03:05:02.740Z,13.12
2024-03-03T03:07:29.640Z,13.10
2024-03-03T03:09:57.411Z,13.02
2024-03-03T03:12:24.418Z,13.41
2024-03-03T03:14:51.319Z,13.27
2024-03-03T03:17:18.265Z,12.73
2024-03-03T03:19:46.184Z,12.70
2024-03-03T03:22:13.601Z,12.82
2024-03-03T03:24:40.605Z,12.91
2024-03-03T03:27:07.679Z,12.93
2024-03-03T03:29:35.172Z,12.92
2024-03-03T03:32:02.232Z,12.79
2024-03-03T03:34:29.206Z,12.84
2024-03-03T03:36:56.590Z,12.65
2024-03-03T03:39:23.746Z,12.71
2024-03-03T03:41:51.443Z,12.67
2024-03-03T03:44:20.235Z,12.66
2024-03-03T03:46:47.671Z,12.67
2024-03-03T03:49:15.815Z,12.47
2024-03-03T03:51:43.389Z,12.82
2024-03-03T03:54:10.554Z,13.10
2024-03-03T03:56:37.945Z,12.98
2024-03-03T03:59:04.879Z,12.75
2024-03-03T04:01:32.245Z,12.86
2024-03-03T04:03:59.971Z,12.94
2024-03-03T04:06:29.678Z,13.14
2024-03-03T04:08:56.727Z,12.36
2024-03-03T04:11:24.116Z,12.74
2024-03-03T04:13:51.564Z,12.98
2024-03-03T04:16:22.181Z,12.73
2024-03-03T04:18:49.485Z,12.82
2024-03-03T04:21:17.540Z,12.57
2024-03-03T04:23:45.016Z,12.50
2024-03-03T04:26:13.938Z,13.13
2024-03-03T04:28:41.035Z,12.69
2024-03-03T04:31:08.390Z,12.84
2024-03-03T04:33:37.009Z,12.49
2024-03-03T04:36:09.261Z,13.30
2024-03-03T04:38:38.315Z,12.29
2024-03-03T04:41:14.267Z,12.83
2024-03-03T04:43:41.893Z,12.59
2024-03-03T04:46:09.857Z,12.73
2024-03-03T04:48:37.610Z,13.03
2024-03-03T04:51:05.354Z,12.88
2024-03-03T04:53:32.226Z,13.07
2024-03-03T04:55:59.178Z,13.66
2024-03-03T04:58:26.142Z,13.34
2024-03-03T05:00:53.190Z,13.06
2024-03-03T05:03:20.149Z,13.28
2024-03-03T05:05:47.173Z,13.14
2024-03-03T05:08:14.219Z,12.82
2024-03-03T05:10:41.271Z,12.69
2024-03-03T05:13:08.258Z,12.32
2024-03-03T05:15:35.243Z,12.55
2024-03-03T05:18:02.181Z,12.15
2024-03-03T05:20:29.073Z,12.20
2024-03-03T05:22:55.992Z,12.48
2024-03-03T05:25:22.964Z,12.38
2024-03-03T05:27:49.936Z,12.58
2024-03-03T05:30:16.935Z,12.85
2024-03-03T05:32:43.887Z,12.91
2024-03-03T05:35:11.356Z,12.55
2024-03-03T05:37:38.302Z,13.28
2024-03-03T05:40:05.930Z,13.46
2024-03-03T05:42:32.840Z,13.29
2024-03-03T05:44:59.791Z,13.28
2024-03-03T05:47:27.333Z,12.61
2024-03-03T05:49:54.241Z,12.64
2024-03-03T05:52:21.350Z,13.60
2024-03-03T05:54:48.448Z,13.39
2024-03-03T05:57:15.486Z,13.52
2024-03-03T05:59:42.575Z,13.36
2024-03-03T06:02:09.523Z,13.42
2024-03-03T06:04:38.003Z,13.61
2024-03-03T06:07:05.710Z,13.96
2024-03-03T06:09:32.885Z,13.30
2024-03-03T06:12:01.128Z,14.06
2024-03-03T06:14:28.078Z,12.92
2024-03-03T06:16:55.120Z,13.06
2024-03-03T06:19:22.140Z,12.83
2024-03-03T06:21:51.591Z,12.56
2024-03-03T06:24:19.361Z,12.92
2024-03-03T06:26:47.206Z,12.58
2024-03-03T06:29:14.161Z,13.04
2024-03-03T06:31:47.379Z,12.85
2024-03-03T06:34:14.723Z,12.72
2024-03-03T06:36:42.183Z,12.69
2024-03-03T06:39:14.119Z,12.63
2024-03-03T06:41:45.076Z,12.89
2024-03-03T06:44:18.051Z,12.73
2024-03-03T06:46:46.806Z,12.91
2024-03-03T06:49:14.599Z,13.27
2024-03-03T06:51:41.904Z,13.23
2024-03-03T06:54:08.930Z,12.69
2024-03-03T06:56:36.017Z,12.66
2024-03-03T06:59:02.957Z,12.89
2024-03-03T07:01:32.002Z,13.65
2024-03-03T07:04:17.993Z,13.53
2024-03-03T07:06:45.045Z,13.04
2024-03-03T07:09:12.030Z,13.47
2024-03-03T07:11:39.207Z,13.75
2024-03-03T07:14:06.892Z,14.01
2024-03-03T07:16:34.050Z,14.38
2024-03-03T07:19:01.132Z,13.84
2024-03-03T07:21:29.492Z,13.62
2024-03-03T07:23:56.402Z,13.64
2024-03-03T07:26:23.305Z,13.79
2024-03-03T07:28:52.353Z,13.52
2024-03-03T07:31:19.940Z,13.59
2024-03-03T07:33:47.004Z,13.09
2024-03-03T07:36:14.048Z,13.20
2024-03-03T07:38:41.364Z,13.60
2024-03-03T07:41:08.331Z,13.31
2024-03-03T07:43:35.626Z,13.81
2024-03-03T07:46:02.630Z,13.78
2024-03-03T07:48:29.699Z,13.72
2024-03-03T07:50:56.754Z,13.41
2024-03-03T07:53:24.279Z,13.82
2024-03-03T07:55:51.431Z,14.24
2024-03-03T07:58:18.510Z,13.86
2024-03-03T08:00:45.917Z,14.01
2024-03-03T08:03:13.639Z,14.69
2024-03-03T08:05:40.641Z,14.73
2024-03-03T08:08:07.907Z,14.85
2024-03-03T08:10:35.053Z,15.05
2024-03-03T08:13:02.129Z,14.80
2024-03-03T08:15:29.222Z,14.33
2024-03-03T08:18:00.520Z,14.61
2024-03-03T08:20:29.486Z,14.64
2024-03-03T08:22:56.702Z,14.57
2024-03-03T08:25:25.743Z,15.40
2024-03-03T08:27:54.006Z,14.53
2024-03-03T08:30:21.352Z,14.36
2024-03-03T08:32:48.499Z,13.95
2024-03-03T08:35:15.980Z,15.01
2024-03-03T08:37:45.888Z,15.10
2024-03-03T08:40:13.197Z,14.19
2024-03-03T08:42:40.408Z,14.69
2024-03-03T08:45:08.058Z,15.12
2024-03-03T08:47:35.233Z,15.10
2024-03-03T08:50:02.579Z,15.51
2024-03-03T08:52:29.684Z,15.22
2024-03-03T08:54:56.663Z,15.50
2024-03-03T08:57:26.449Z,15.15
2024-03-03T08:59:53.444Z,15.72
2024-03-03T09:02:20.353Z,15.64
2024-03-03T09:04:47.328Z,15.07
2024-03-03T09:07:14.703Z,15.34
2024-03-03T09:09:44.198Z,15.38
2024-03-03T09:12:12.806Z,15.40
2024-03-03T09:14:40.099Z,14.88
2024-03-03T09:17:07.077Z,15.19
2024-03-03T09:19:34.241Z,14.84
2024-03-03T09:22:01.327Z,14.89
2024-03-03T09:24:28.383Z,14.75
2024-03-03T09:26:55.321Z,14.57
2024-03-03T09:29:25.118Z,14.73
2024-03-03T09:31:55.521Z,15.34
2024-03-03T09:34:23.606Z,15.19
2024-03-03T09:36:51.000Z,15.42
2024-03-03T09:39:18.429Z,15.09
2024-03-03T09:41:45.559Z,15.29
2024-03-03T09:44:19.083Z,15.68
2024-03-03T09:46:47.971Z,15.05
2024-03-03T09:49:19.691Z,15.67
2024-03-03T09:51:48.313Z,15.72
2024-03-03T09:54:19.860Z,15.88
2024-03-03T09:56:49.204Z,15.71
2024-03-03T09:59:17.114Z,15.74
2024-03-03T10:02:00.547Z,16.10
2024-03-03T10:04:30.046Z,15.58
2024-03-03T10:07:01.241Z,15.48
2024-03-03T10:09:30.669Z,16.20
2024-03-03T10:11:58.532Z,15.58
2024-03-03T10:14:27.241Z,16.02
2024-03-03T10:16:54.159Z,15.96
2024-03-03T10:19:21.209Z,16.26
2024-03-03T10:21:49.054Z,15.76
2024-03-03T10:24:27.970Z,16.03
2024-03-03T10:26:57.051Z,15.95
2024-03-03T10:29:28.817Z,15.93
2024-03-03T10:31:56.998Z,16.71
2024-03-03T10:34:25.275Z,16.67
2024-03-03T10:37:03.920Z,17.16
2024-03-03T10:39:36.529Z,17.30
2024-03-03T10:42:11.083Z,17.11
2024-03-03T10:44:38.865Z,16.81
2024-03-03T10:47:10.235Z,16.70
2024-03-03T10:49:40.183Z,16.95
2024-03-03T10:52:12.024Z,16.97
2024-03-03T10:54:43.126Z,17.64
2024-03-03T10:57:11.265Z,17.25
2024-03-03T10:59:42.649Z,17.86
2024-03-03T11:02:13.860Z,17.68
2024-03-03T11:04:43.056Z,17.72
2024-03-03T11:07:12.144Z,18.00
2024-03-03T11:09:39.643Z,18.08
2024-03-03T11:12:09.153Z,17.80
2024-03-03T11:14:46.824Z,18.13
2024-03-03T11:17:23.063Z,18.09
2024-03-03T11:19:51.449Z,18.02
2024-03-03T11:22:23.598Z,18.79
2024-03-03T11:25:17.016Z,17.58
2024-03-03T11:27:51.667Z,18.18
2024-03-03T11:30:18.964Z,17.75
2024-03-03T11:32:46.834Z,18.13
2024-03-03T11:35:14.587Z,18.39
2024-03-03T11:37:41.599Z,18.41
2024-03-03T11:40:17.859Z,18.17
2024-03-03T11:42:47.599Z,18.48
2024-03-03T11:45:15.035Z,18.82
2024-03-03T11:47:50.782Z,18.85
2024-03-03T11:50:22.991Z,18.97
2024-03-03T11:52:51.446Z,19.16
2024-03-03T11:55:26.118Z,19.29
2024-03-03T11:57:56.363Z,19.20
2024-03-03T12:00:28.749Z,18.71
2024-03-03T12:02:57.230Z,19.31
2024-03-03T12:05:24.296Z,19.19
2024-03-03T12:07:55.523Z,19.18
2024-03-03T12:10:28.304Z,19.29
2024-03-03T12:13:00.610Z,18.76
2024-03-03T12:15:29.337Z,18.55
2024-03-03T12:17:58.586Z,18.04
2024-03-03T12:20:27.793Z,18.58
2024-03-03T12:22:55.837Z,19.18
2024-03-03T12:25:25.471Z,18.82
2024-03-03T12:28:03.376Z,19.43
2024-03-03T12:30:33.630Z,19.46
2024-03-03T12:33:01.970Z,19.08
2024-03-03T12:35:29.385Z,18.88
2024-03-03T12:37:56.855Z,19.68
2024-03-03T12:40:26.418Z,19.70
2024-03-03T12:42:54.010Z,20.29
2024-03-03T12:45:21.297Z,19.67
2024-03-03T12:47:51.454Z,19.37
2024-03-03T12:50:20.474Z,19.88
2024-03-03T12:52:48.675Z,19.57
2024-03-03T12:55:16.600Z,19.57
2024-03-03T12:57:45.641Z,19.59
2024-03-03T13:00:19.450Z,19.68
2024-03-03T13:02:46.840Z,19.57
2024-03-03T13:05:15.699Z,19.88
2024-03-03T13:07:53.023Z,19.90
2024-03-03T13:10:24.953Z,20.40
2024-03-03T13:12:53.426Z,20.05
2024-03-03T13:15:25.089Z,19.97
2024-03-03T13:18:08.034Z,21.42
2024-03-03T13:20:35.623Z,21.74
2024-03-03T13:23:11.950Z,21.71
2024-03-03T13:25:40.823Z,21.64
2024-03-03T13:28:08.293Z,21.70
2024-03-03T13:30:35.911Z,20.98
2024-03-03T13:33:02.927Z,21.42
2024-03-03T13:35:30.090Z,21.74
2024-03-03T13:37:57.175Z,21.84
2024-03-03T13:40:24.135Z,21.87
2024-03-03T13:42:51.107Z,21.50
2024-03-03T13:45:18.471Z,21.20
2024-03-03T13:47:45.491Z,22.00
2024-03-03T13:50:12.710Z,21.10
2024-03-03T13:52:39.793Z,21.60
2024-03-03T13:55:07.448Z,21.29
2024-03-03T13:57:34.594Z,21.31
2024-03-03T14:00:01.557Z,21.32
2024-03-03T14:02:38.871Z,21.94
2024-03-03T14:05:06.169Z,21.47
2024-03-03T14:07:33.273Z,21.07
2024-03-03T14:10:00.884Z,20.64
2024-03-03T14:12:28.059Z,20.86
2024-03-03T14:14:54.986Z,21.21
2024-03-03T14:17:21.904Z,21.45
2024-03-03T14:19:48.882Z,21.43
2024-03-03T14:22:16.086Z,21.17
2024-03-03T14:24:43.673Z,20.58
2024-03-03T14:27:10.705Z,20.79
2024-03-03T14:29:38.039Z,20.85
2024-03-03T14:32:05.296Z,20.88
2024-03-03T14:34:32.226Z,20.83
2024-03-03T14:37:01.154Z,21.18
2024-03-03T14:39:28.286Z,21.37
2024-03-03T14:41:55.169Z,20.97
2024-03-03T14:44:22.068Z,21.30
2024-03-03T14:46:49.005Z,21.48
2024-03-03T14:49:17.914Z,21.01
2024-03-03T14:51:44.783Z,21.77
2024-03-03T14:54:14.108Z,21.54
2024-03-03T14:56:41.342Z,21.91
2024-03-03T14:59:08.392Z,21.53
2024-03-03T15:01:35.368Z,21.89
2024-03-03T15:04:03.654Z,21.48
2024-03-03T15:06:30.558Z,21.11
2024-03-03T15:08:57.577Z,22.17
2024-03-03T15:11:24.658Z,21.74
2024-03-03T15:13:51.608Z,21.31
2024-03-03T15:16:20.406Z,21.41
2024-03-03T15:18:47.386Z,21.77
2024-03-03T15:21:14.283Z,21.15
2024-03-03T15:23:41.716Z,21.40
2024-03-03T15:26:08.651Z,21.22
2024-03-03T15:28:35.649Z,21.62
2024-03-03T15:31:03.898Z,21.44
2024-03-03T15:33:31.901Z,21.29
2024-03-03T15:35:59.976Z,21.05
2024-03-03T15:38:28.026Z,21.04
2024-03-03T15:40:54.936Z,21.28
2024-03-03T15:43:21.901Z,21.11
2024-03-03T15:45:49.637Z,21.72
2024-03-03T15:48:17.408Z,20.93
2024-03-03T15:50:44.338Z,20.70
2024-03-03T15:53:11.328Z,20.71
2024-03-03T15:55:39.352Z,20.67
2024-03-03T15:58:06.704Z,20.67
2024-03-03T16:00:33.850Z,20.57
2024-03-03T16:03:02.710Z,19.98
2024-03-03T16:05:32.527Z,20.21
2024-03-03T16:07:59.998Z,20.63
2024-03-03T16:10:26.941Z,20.66
2024-03-03T16:12:53.936Z,19.99
2024-03-03T16:15:22.994Z,19.70
2024-03-03T16:17:50.552Z,19.33
2024-03-03T16:20:18.201Z,18.85
2024-03-03T16:22:45.283Z,19.24
2024-03-03T16:25:12.547Z,18.79
2024-03-03T16:27:39.593Z,19.00
2024-03-03T16:30:07.330Z,18.83
2024-03-03T16:32:34.393Z,18.80
2024-03-03T16:35:01.359Z,19.45
2024-03-03T16:37:28.429Z,19.08
2024-03-03T16:39:56.499Z,18.39
2024-03-03T16:42:23.575Z,18.71
2024-03-03T16:44:50.758Z,18.97
2024-03-03T16:47:17.948Z,18.92
2024-03-03T16:49:45.254Z,18.72
2024-03-03T16:52:12.259Z,18.59
2024-03-03T16:54:39.689Z,17.83
2024-03-03T16:57:06.881Z,18.21
2024-03-03T16:59:33.836Z,17.97
2024-03-03T17:02:00.917Z,17.97
2024-03-03T17:04:28.080Z,18.38
2024-03-03T17:06:55.145Z,17.51
2024-03-03T17:09:22.357Z,18.27
2024-03-03T17:11:49.264Z,18.54
2024-03-03T17:14:16.220Z,18.38
2024-03-03T17:16:43.274Z,18.44
2024-03-03T17:19:10.357Z,18.74
2024-03-03T17:21:37.281Z,17.92
2024-03-03T17:24:04.435Z,18.21
2024-03-03T17:26:31.846Z,18.24
2024-03-03T17:28:58.857Z,18.16
2024-03-03T17:31:25.859Z,17.79
2024-03-03T17:33:54.364Z,17.76
2024-03-03T17:36:24.707Z,18.13
2024-03-03T17:38:52.771Z,17.74
2024-03-03T17:41:19.782Z,18.04
2024-03-03T17:43:47.915Z,18.28
2024-03-03T17:46:15.004Z,18.17
2024-03-03T17:48:42.002Z,18.08
2024-03-03T17:51:09.081Z,17.76
2024-03-03T17:53:36.010Z,17.79
2024-03-03T17:56:05.628Z,17.57
2024-03-03T17:58:32.856Z,17.61
2024-03-03T18:00:59.971Z,17.09
2024-03-03T18:03:27.180Z,17.27
2024-03-03T18:05:54.186Z,17.35
2024-03-03T18:08:21.282Z,17.21
2024-03-03T18:10:48.222Z,16.78
2024-03-03T18:13:15.255Z,16.84
2024-03-03T18:15:42.225Z,16.75
2024-03-03T18:18:10.393Z,16.49
2024-03-03T18:20:37.384Z,16.88
2024-03-03T18:23:04.535Z,16.55
2024-03-03T18:25:31.690Z,16.99
2024-03-03T18:27:58.695Z,16.10
2024-03-03T18:30:27.168Z,16.51
2024-03-03T18:32:58.673Z,16.49
2024-03-03T18:35:25.626Z,16.35
2024-03-03T18:37:52.657Z,16.29
2024-03-03T18:40:19.724Z,16.37
2024-03-03T18:42:48.282Z,16.78
2024-03-03T18:45:15.548Z,16.95
2024-03-03T18:47:42.645Z,16.81
2024-03-03T18:50:10.539Z,16.75
2024-03-03T18:52:37.765Z,16.78
2024-03-03T18:55:06.260Z,16.23
2024-03-03T18:57:34.480Z,16.09
2024-03-03T19:00:01.516Z,16.08
2024-03-03T19:02:29.085Z,16.36
2024-03-03T19:04:56.119Z,16.53
2024-03-03T19:07:23.149Z,16.41
2024-03-03T19:09:50.224Z,16.38
2024-03-03T19:12:17.349Z,16.52
2024-03-03T19:14:44.329Z,16.48
2024-03-03T19:17:11.309Z,16.43
2024-03-03T19:19:40.176Z,16.45
2024-03-03T19:22:07.267Z,16.23
2024-03-03T19:24:34.259Z,16.38
2024-03-03T19:27:01.212Z,16.38
2024-03-03T19:29:29.457Z,16.44
2024-03-03T19:31:56.429Z,16.38
2024-03-03T19:34:23.782Z,16.35
2024-03-03T19:36:50.870Z,16.10
2024-03-03T19:39:17.873Z,16.02
2024-03-03T19:41:44.783Z,15.67
2024-03-03T19:44:13.183Z,15.59
2024-03-03T19:46:43.914Z,15.89
2024-03-03T19:49:12.524Z,15.78
2024-03-03T19:51:39.554Z,16.02
2024-03-03T19:54:06.513Z,16.08
2024-03-03T19:56:33.548Z,16.16
2024-03-03T19:59:00.641Z,16.00
2024-03-03T20:01:27.787Z,16.04
2024-03-03T20:03:54.913Z,16.00
2024-03-03T20:06:21.989Z,15.93
2024-03-03T20:08:48.941Z,15.85
2024-03-03T20:11:16.290Z,15.82
2024-03-03T20:13:44.310Z,15.87
2024-03-03T20:16:11.951Z,16.03
2024-03-03T20:18:47.308Z,15.62
2024-03-03T20:21:14.317Z,15.57
2024-03-03T20:23:41.257Z,15.33
2024-03-03T20:26:08.269Z,15.38
2024-03-03T20:28:36.176Z,15.29
2024-03-03T20:31:03.176Z,14.89
2024-03-03T20:33:30.315Z,15.18
2024-03-03T20:35:57.272Z,15.22
2024-03-03T20:38:24.247Z,15.02
2024-03-03T20:40:52.135Z,15.12
2024-03-03T20:43:19.365Z,14.92
2024-03-03T20:45:48.589Z,14.99
2024-03-03T20:48:16.130Z,14.88
2024-03-03T20:50:43.098Z,14.53
2024-03-03T20:53:10.159Z,14.74
2024-03-03T20:55:37.295Z,14.93
2024-03-03T20:58:04.480Z,15.05
2024-03-03T21:00:31.607Z,15.06
2024-03-03T21:02:58.907Z,15.07
2024-03-03T21:05:26.523Z,14.89
2024-03-03T21:07:53.602Z,14.89
2024-03-03T21:10:22.962Z,14.90
2024-03-03T21:12:50.223Z,14.76
2024-03-03T21:15:17.375Z,14.85
2024-03-03T21:17:44.344Z,14.88
2024-03-03T21:20:14.430Z,14.75
2024-03-03T21:22:44.478Z,14.82
2024-03-03T21:25:14.624Z,15.03
2024-03-03T21:27:41.662Z,14.77
2024-03-03T21:30:09.763Z,14.70
2024-03-03T21:32:36.739Z,14.79
2024-03-03T21:35:03.801Z,14.23
2024-03-03T21:37:30.788Z,14.59
2024-03-03T21:39:57.716Z,14.52
2024-03-03T21:42:24.728Z,14.70
2024-03-03T21:44:51.878Z,14.67
2024-03-03T21:47:18.846Z,14.61
2024-03-03T21:49:47.247Z,14.68
2024-03-03T21:52:14.336Z,14.45
2024-03-03T21:54:41.355Z,14.77
2024-03-03T21:57:08.513Z,14.91
2024-03-03T21:59:35.462Z,14.70
2024-03-03T22:02:07.999Z,14.73
2024-03-03T22:04:35.869Z,14.14
2024-03-03T22:07:03.338Z,14.52
2024-03-03T22:09:30.379Z,14.41
2024-03-03T22:11:57.601Z,14.25
2024-03-03T22:14:24.515Z,14.36
2024-03-03T22:16:51.493Z,14.26
2024-03-03T22:19:19.021Z,14.16
2024-03-03T22:21:46.119Z,14.29
2024-03-03T22:24:13.965Z,14.04
2024-03-03T22:26:43.157Z,14.23
2024-03-03T22:29:11.289Z,14.04
2024-03-03T22:31:38.556Z,14.26
2024-03-03T22:34:05.594Z,14.09
2024-03-03T22:36:32.681Z,14.26
2024-03-03T22:38:59.601Z,14.09
2024-03-03T22:41:27.300Z,14.08
2024-03-03T22:43:54.253Z,13.87
2024-03-03T22:46:23.173Z,13.63
2024-03-03T22:48:50.265Z,13.85
2024-03-03T22:51:17.262Z,13.66
2024-03-03T22:53:45.144Z,13.69
2024-03-03T22:56:12.160Z,13.60
2024-03-03T22:58:39.204Z,13.79
2024-03-03T23:01:06.271Z,13.51
2024-03-03T23:03:33.549Z,13.37
2024-03-03T23:06:00.410Z,13.41
2024-03-03T23:08:27.379Z,13.35
2024-03-03T23:10:54.380Z,13.59
2024-03-03T23:13:21.786Z,13.55
2024-03-03T23:15:48.764Z,13.48
2024-03-03T23:18:16.417Z,13.41
2024-03-03T23:20:43.399Z,13.41
2024-03-03T23:23:10.379Z,13.24
2024-03-03T23:25:37.388Z,13.19
2024-03-03T23:28:04.737Z,13.18
2024-03-03T23:30:31.721Z,13.13
2024-03-03T23:32:58.658Z,13.19
2024-03-03T23:35:25.974Z,13.04
2024-03-03T23:37:53.104Z,12.97
2024-03-03T23:40:20.362Z,12.92
2024-03-03T23:42:47.387Z,13.02
2024-03-03T23:45:14.351Z,13.05
2024-03-03T23:47:42.784Z,12.99
2024-03-03T23:50:09.994Z,12.77
2024-03-03T23:52:36.956Z,12.79
2024-03-03T23:55:04.816Z,12.61
2024-03-03T23:57:32.226Z,12.73
2024-03-03T23:59:59.248Z,12.68
